This is the latest recevied weather packets stored in our database for station/object F4BQN-15. If no packets are shown the sender has not sent any weather packets the latest 10 day(s).
| Time | Temp. | Humidity | Pressure | Rain* | Wind** | Luminosity | Snow |
|---|---|---|---|---|---|---|---|
| 1777444431 | 20° C | 34% | 984.1 hPa | - | - | - | - |
| 1777444257 | 20° C | 34% | 984.1 hPa | - | - | - | - |
| 1777444223 | 20° C | 34% | 984.1 hPa | - | - | - | - |
| 1777444186 | 20° C | 34% | 984.1 hPa | - | - | - | - |
| 1777444152 | 20° C | 34% | 984.3 hPa | - | - | - | - |
| 1777443939 | 20° C | 35% | 984.2 hPa | - | - | - | - |
| 1777443902 | 20° C | 35% | 984.2 hPa | - | - | - | - |
| 1777443734 | 20° C | 34% | 984.2 hPa | - | - | - | - |
| 1777443699 | 20° C | 34% | 984 hPa | - | - | - | - |
| 1777443623 | 20° C | 34% | 984.1 hPa | - | - | - | - |
| 1777443588 | 20° C | 34% | 984.1 hPa | - | - | - | - |
| 1777443554 | 20° C | 34% | 984 hPa | - | - | - | - |
| 1777443414 | 20° C | 34% | 984.1 hPa | - | - | - | - |
| 1777443326 | 20° C | 34% | 984 hPa | - | - | - | - |
| 1777443291 | 20° C | 34% | 984 hPa | - | - | - | - |
| 1777443256 | 20° C | 34% | 984 hPa | - | - | - | - |
| 1777442237 | 19.44° C | 34% | 983.9 hPa | - | - | - | - |
| 1777442176 | 19.44° C | 34% | 983.8 hPa | - | - | - | - |
| 1777441652 | 18.89° C | 34% | 983.8 hPa | - | - | - | - |
| 1777441059 | 18.33° C | 35% | 983.9 hPa | - | - | - | - |
| 1777440750 | 17.22° C | 35% | 983.9 hPa | - | - | - | - |
| 1777440679 | 17.22° C | 36% | 983.8 hPa | - | - | - | - |
| 1777440645 | 17.22° C | 37% | 983.8 hPa | - | - | - | - |
| 1777397320 | 24.44° C | 28% | 984.7 hPa | - | - | - | - |
| 1777396420 | 25° C | 28% | 984.8 hPa | - | - | - | - |
* Rain since midnight (hover to see other rain measurements)
** Current wind speed in m/s (hover to see current wind gust speed)